M I D A S
Marine Information and Data Acquisition System
Tripno 595 of the Zeeleeuw from 2003-09-22 06:35:02 to 2003-09-22 13:17:30
Back to CruiseResearch ActivitiesStationsMapUnderway DataData graphs

EquipmentUnitsComments
TimeDGPSUTC
LatitudeDGPSDM.mWGS84
LongitudeDGPSDM.mWGS84
SpeedMeteo Stationm/sRelative wind speed
DirectionMeteo StationdegRelative wind direction
TemperatureMeteo Stationdeg CelciusAir temperature
PressureMeteo StationPaAtmospheric pressure
HumidityMeteo Station%Relative humidity
Missing or incorrect values are displayed as -999
Metereological data collected by the RV Zeeleeuw from 2003-09-22 06:35:02 to 2003-09-22 13:17:30
Time Latitude Longitude Speed Direction Temperature Pressure Humidity
2003-09-22 06:36 51°14.41 2°54.98 7 309 17.3 100790 68
2003-09-22 06:37 51°14.58 2°54.78 5.4 300 17.4 100790 68
2003-09-22 06:38 51°14.76 2°54.59 4.9 299 17.5 100790 68
2003-09-22 06:39 51°14.95 2°54.4 6.5 289 17.5 100780 68
2003-09-22 06:40 51°15.14 2°54.21 6.5 275 17.6 100790 69
2003-09-22 06:41 51°15.34 2°54.02 8.5 273 17.6 100780 68
2003-09-22 06:42 51°15.53 2°53.82 5.9 283 17.7 100780 69
2003-09-22 06:43 51°15.73 2°53.64 7.2 274 17.7 100770 69
2003-09-22 06:44 51°15.93 2°53.45 5.9 288 17.8 100770 68
2003-09-22 06:45 51°16.13 2°53.28 6.1 284 17.8 100780 69
2003-09-22 06:46 51°16.33 2°53.12 8 270 17.8 100780 69
2003-09-22 06:47 51°16.53 2°52.96 7 274 17.7 100780 70
2003-09-22 06:48 51°16.73 2°52.8 6.5 290 17.7 100780 71
2003-09-22 06:49 51°16.93 2°52.64 7.1 269 17.7 100780 71
2003-09-22 06:50 51°17.14 2°52.48 5.7 289 17.7 100770 71
2003-09-22 06:51 51°17.34 2°52.32 8.9 281 17.6 100770 70
2003-09-22 06:52 51°17.51 2°52.09 9.3 283 17.6 100760 71
2003-09-22 06:53 51°17.65 2°51.8 10.3 295 17.6 100750 71
2003-09-22 06:54 51°17.77 2°51.52 9.5 291 17.5 100750 72
2003-09-22 06:55 51°17.9 2°51.24 10.6 296 17.5 100750 72
2003-09-22 06:56 51°18.02 2°50.96 10.3 293 17.5 100750 73
2003-09-22 06:57 51°18.15 2°50.68 9.1 291 17.5 100740 72
2003-09-22 06:58 51°18.28 2°50.4 8.5 294 17.5 100740 73
2003-09-22 06:59 51°18.41 2°50.12 8.8 305 17.5 100730 73
2003-09-22 07:00 51°18.55 2°49.84 9.1 307 17.6 100730 74
2003-09-22 07:01 51°18.68 2°49.56 9.8 307 17.6 100730 73
2003-09-22 07:02 51°18.8 2°49.28 11.2 296 17.7 100740 73
2003-09-22 07:03 51°18.93 2°49 10 302 17.7 100740 73
2003-09-22 07:04 51°19.05 2°48.72 10.4 303 17.8 100740 73
2003-09-22 07:05 51°19.18 2°48.44 10.4 306 17.8 100740 74
2003-09-22 07:06 51°19.31 2°48.16 10.2 307 17.8 100730 74
2003-09-22 07:07 51°19.43 2°47.87 11.5 303 17.8 100730 74
2003-09-22 07:08 51°19.56 2°47.58 10.7 304 17.8 100730 75
2003-09-22 07:09 51°19.68 2°47.29 11.1 307 17.8 100730 74
2003-09-22 07:10 51°19.81 2°47 12.1 305 17.9 100730 75
2003-09-22 07:11 51°19.93 2°46.72 12 306 17.9 100730 75
2003-09-22 07:12 51°20.05 2°46.42 12.4 313 18 100720 76
2003-09-22 07:13 51°20.14 2°46.11 11.7 316 18.1 100720 76
2003-09-22 07:14 51°20.2 2°45.79 12.9 324 18.1 100700 75
2003-09-22 07:15 51°20.26 2°45.46 14.3 321 18.2 100700 76
2003-09-22 07:16 51°20.31 2°45.12 14.8 326 18.2 100700 75
2003-09-22 07:17 51°20.34 2°44.77 14.8 323 18.3 100700 76
2003-09-22 07:18 51°20.38 2°44.42 14.1 329 18.3 100700 76
2003-09-22 07:19 51°20.41 2°44.06 15.7 328 18.4 100700 77
2003-09-22 07:20 51°20.44 2°43.7 14.3 331 18.4 100710 77
2003-09-22 07:21 51°20.48 2°43.35 14.7 328 18.4 100700 77
2003-09-22 07:22 51°20.51 2°42.99 14.5 335 18.4 100700 77
2003-09-22 07:23 51°20.54 2°42.64 15.3 334 18.4 100710 77
2003-09-22 07:24 51°20.57 2°42.3 12.8 333 18.4 100710 78
2003-09-22 07:25 51°20.6 2°41.95 13.5 328 18.4 100710 78
2003-09-22 07:26 51°20.64 2°41.61 16.1 332 18.5 100710 79
2003-09-22 07:27 51°20.67 2°41.26 14.9 334 18.5 100710 79
2003-09-22 07:28 51°20.71 2°40.92 14.2 330 18.5 100700 78
2003-09-22 07:29 51°20.74 2°40.57 15.2 333 18.5 100710 79
2003-09-22 07:30 51°20.77 2°40.24 15.3 333 18.5 100680 78
2003-09-22 07:31 51°20.79 2°39.88 16.7 334 18.5 100700 79
2003-09-22 07:32 51°20.82 2°39.54 15.3 333 18.5 100690 79
2003-09-22 07:33 51°20.85 2°39.18 16.1 335 18.5 100680 80
2003-09-22 07:34 51°20.88 2°38.84 16.4 336 18.5 100680 79
2003-09-22 07:35 51°20.91 2°38.5 17.9 335 18.5 100690 80
2003-09-22 07:36 51°20.94 2°38.16 14.5 343 18.4 100680 80
2003-09-22 07:37 51°20.96 2°37.81 15.5 341 18.4 100690 80
2003-09-22 07:38 51°20.99 2°37.47 16.2 333 18.4 100690 81
2003-09-22 07:39 51°21.02 2°37.13 15.5 339 18.4 100680 81
2003-09-22 07:40 51°21.05 2°36.78 15.4 333 18.4 100680 82
2003-09-22 07:41 51°21.08 2°36.44 14.5 341 18.4 100680 82
2003-09-22 07:42 51°21.11 2°36.1 16 342 18.4 100690 83
2003-09-22 07:43 51°21.15 2°35.75 15.3 334 18.4 100680 83
2003-09-22 07:44 51°21.18 2°35.41 14.9 346 18.4 100680 84
2003-09-22 07:45 51°21.21 2°35.07 16.4 344 18.4 100690 84
2003-09-22 07:46 51°21.24 2°34.72 15.3 345 18.4 100700 84
2003-09-22 07:47 51°21.27 2°34.38 16.3 346 18.4 100710 85
2003-09-22 07:48 51°21.31 2°34.04 14.6 341 18.3 100690 85
2003-09-22 07:49 51°21.37 2°33.71 15.2 333 18.3 100690 86
2003-09-22 07:50 51°21.52 2°33.46 13.1 312 18.2 100680 86
2003-09-22 07:51 51°21.72 2°33.29 12.8 309 18.2 100700 86
2003-09-22 07:52 51°21.92 2°33.14 12.5 300 18.1 100710 86
2003-09-22 07:53 51°22.14 2°33.05 9.1 289 18.1 100710 86
2003-09-22 07:54 51°22.37 2°33.01 8.4 299 18.1 100710 87
2003-09-22 07:55 51°22.59 2°32.94 10.7 307 18.2 100690 87
2003-09-22 07:56 51°22.81 2°32.84 12.5 303 18.1 100700 87
2003-09-22 07:57 51°23.02 2°32.74 13.4 310 18.1 100700 87
2003-09-22 07:58 51°23.15 2°32.47 14.6 323 18.1 100680 87
2003-09-22 07:59 51°23.21 2°32.15 16.3 340 18.1 100670 87
2003-09-22 08:00 51°23.21 2°31.81 15.9 350 18.1 100670 87
2003-09-22 08:01 51°23.18 2°31.48 18.3 349 18.1 100670 87
2003-09-22 08:02 51°23.15 2°31.15 17.6 347 18.1 100660 87
2003-09-22 08:03 51°23.12 2°30.81 18.8 350 18.2 100680 87
2003-09-22 08:04 51°23.09 2°30.48 17 348 18.1 100660 87
2003-09-22 08:05 51°23.06 2°30.15 17.1 344 18.2 100660 88
2003-09-22 08:06 51°23.02 2°29.81 17 346 18.2 100660 88
2003-09-22 08:07 51°22.98 2°29.48 18.2 352 18.2 100680 88
2003-09-22 08:08 51°22.91 2°29.16 18 346 18.3 100660 88
2003-09-22 08:09 51°22.91 2°28.83 15.4 339 18.3 100660 88
2003-09-22 08:10 51°22.89 2°28.49 17.5 343 18.3 100660 88
2003-09-22 08:11 51°22.87 2°28.15 16.9 343 18.3 100660 88
2003-09-22 08:12 51°22.85 2°27.81 16.9 345 18.3 100660 88
2003-09-22 08:13 51°22.83 2°27.47 16.4 347 18.4 100670 88
2003-09-22 08:14 51°22.8 2°27.13 16.3 343 18.4 100650 88
2003-09-22 08:15 51°22.78 2°26.79 16.2 339 18.4 100660 88
2003-09-22 08:16 51°22.75 2°26.45 15 346 18.4 100660 88
2003-09-22 08:17 51°22.8 2°26.12 14.2 319 18.4 100660 88
2003-09-22 08:18 51°22.99 2°25.94 10.4 295 18.4 100660 88
2003-09-22 08:19 51°23.21 2°25.86 10.6 275 18.4 100680 87
2003-09-22 08:20 51°23.45 2°25.83 8.1 285 18.4 100690 87
2003-09-22 08:21 51°23.69 2°25.79 8.5 280 18.4 100680 87
2003-09-22 08:22 51°23.92 2°25.75 8.9 281 18.5 100680 87
2003-09-22 08:23 51°24.16 2°25.76 9.4 279 18.5 100680 87
2003-09-22 08:24 51°24.4 2°25.77 7.7 272 18.5 100690 86
2003-09-22 08:25 51°24.64 2°25.81 6.1 263 18.5 100680 86
2003-09-22 08:26 51°24.86 2°25.86 6.3 274 18.5 100680 86
2003-09-22 08:27 51°25.11 2°25.91 5.3 258 18.5 100680 86
2003-09-22 08:28 51°25.34 2°25.99 6.4 260 18.5 100670 86
2003-09-22 08:29 51°25.58 2°26.05 5.3 258 18.5 100680 86
2003-09-22 08:30 51°25.81 2°26.13 6.2 261 18.6 100680 86
2003-09-22 08:31 51°26.05 2°26.19 8.3 267 18.6 100680 86
2003-09-22 08:32 51°26.28 2°26.25 4.8 258 18.5 100670 86
2003-09-22 08:33 51°26.52 2°26.32 6.4 258 18.6 100680 86
2003-09-22 08:34 51°26.75 2°26.4 7.2 269 18.5 100680 86
2003-09-22 08:35 51°26.98 2°26.47 7.3 266 18.5 100670 86
2003-09-22 08:36 51°27.22 2°26.53 7.2 261 18.5 100670 86
2003-09-22 08:37 51°27.44 2°26.6 6.3 260 18.5 100670 86
2003-09-22 08:38 51°27.69 2°26.67 5.1 258 18.5 100660 86
2003-09-22 08:39 51°27.92 2°26.74 5.7 253 18.6 100660 86
2003-09-22 08:40 51°28.15 2°26.8 8.9 269 18.5 100660 85
2003-09-22 08:41 51°28.39 2°26.87 5 251 18.6 100660 85
2003-09-22 08:42 51°28.62 2°26.94 6 258 18.6 100660 85
2003-09-22 08:43 51°28.75 2°26.94 13.2 272 18.5 100650 85
2003-09-22 08:44 51°28.78 2°26.96 8 258 18.5 100650 85
2003-09-22 08:45 51°28.78 2°27.01 8 257 18.5 100640 85
2003-09-22 08:46 51°28.79 2°27.05 10 242 18.6 100650 85
2003-09-22 08:47 51°28.81 2°27.09 7.9 254 18.5 100640 85
2003-09-22 08:48 51°28.83 2°27.12 10.4 266 18.5 100630 85
2003-09-22 08:49 51°28.94 2°27.08 8.8 276 18.5 100640 85
2003-09-22 08:50 51°29.16 2°27.07 11.3 263 18.6 100640 85
2003-09-22 08:51 51°29.4 2°27.12 9.8 263 18.6 100660 85
2003-09-22 08:52 51°29.64 2°27.18 9.5 259 18.6 100650 85
2003-09-22 08:53 51°29.88 2°27.25 9 272 18.6 100650 85
2003-09-22 08:54 51°30.12 2°27.3 8.1 265 18.6 100650 85
2003-09-22 08:55 51°30.35 2°27.36 8.5 265 18.6 100650 85
2003-09-22 08:56 51°30.58 2°27.41 7.7 267 18.7 100640 85
2003-09-22 08:57 51°30.81 2°27.47 8.7 266 18.7 100640 85
2003-09-22 08:58 51°31.04 2°27.53 5 255 18.7 100640 85
2003-09-22 08:59 51°31.27 2°27.57 7.8 273 18.6 100630 85
2003-09-22 09:00 51°31.52 2°27.64 7.3 267 18.6 100640 85
2003-09-22 09:01 51°31.75 2°27.7 9.8 260 18.6 100640 85
2003-09-22 09:02 51°31.98 2°27.79 4.1 255 18.6 100640 85
2003-09-22 09:03 51°32.21 2°27.94 3.7 264 18.6 100640 85
2003-09-22 09:04 51°32.44 2°28.07 6.5 240 18.6 100630 85
2003-09-22 09:05 51°32.66 2°28.2 5.6 248 18.6 100640 85
2003-09-22 09:06 51°32.9 2°28.34 5.1 258 18.6 100630 85
2003-09-22 09:07 51°33.12 2°28.48 5.8 248 18.5 100630 85
2003-09-22 09:08 51°33.35 2°28.62 5.9 254 18.6 100630 85
2003-09-22 09:09 51°33.59 2°28.76 6.2 251 18.5 100630 85
2003-09-22 09:10 51°33.81 2°28.89 5.2 250 18.6 100630 85
2003-09-22 09:11 51°34.04 2°29.03 5.1 255 18.5 100620 85
2003-09-22 09:12 51°34.27 2°29.18 6.4 243 18.5 100620 85
2003-09-22 09:13 51°34.5 2°29.32 5.7 257 18.6 100610 85
2003-09-22 09:14 51°34.73 2°29.45 6.2 253 18.6 100620 85
2003-09-22 09:15 51°34.95 2°29.59 5.8 256 18.6 100620 85
2003-09-22 09:16 51°35.18 2°29.72 7.2 244 18.6 100600 85
2003-09-22 09:17 51°35.41 2°29.86 5 256 18.5 100610 85
2003-09-22 09:18 51°35.64 2°30 7.7 268 18.5 100610 85
2003-09-22 09:19 51°35.86 2°30.15 6.4 256 18.5 100610 85
2003-09-22 09:20 51°36.08 2°30.3 6 239 18.5 100610 85
2003-09-22 09:21 51°36.31 2°30.46 7.2 245 18.6 100610 85
2003-09-22 09:22 51°36.53 2°30.61 4.2 258 18.6 100610 85
2003-09-22 09:23 51°36.75 2°30.75 5.5 244 18.6 100610 85
2003-09-22 09:24 51°36.98 2°30.91 5.3 236 18.6 100600 85
2003-09-22 09:25 51°37.2 2°31.07 5.5 246 18.6 100600 85
2003-09-22 09:26 51°37.42 2°31.24 4.2 240 18.6 100600 85
2003-09-22 09:27 51°37.63 2°31.4 3.8 255 18.6 100610 85
2003-09-22 09:28 51°37.85 2°31.59 5.2 242 18.7 100610 85
2003-09-22 09:29 51°38.07 2°31.76 6.1 260 18.6 100600 85
2003-09-22 09:30 51°38.29 2°31.91 4 247 18.6 100600 85
2003-09-22 09:31 51°38.51 2°32.1 5 240 18.6 100610 85
2003-09-22 09:32 51°38.73 2°32.3 5.3 241 18.6 100600 85
2003-09-22 09:33 51°38.95 2°32.49 4.7 240 18.7 100600 85
2003-09-22 09:34 51°39.16 2°32.68 5.4 231 18.7 100600 85
2003-09-22 09:35 51°39.37 2°32.89 4.1 239 18.6 100600 84
2003-09-22 09:36 51°39.58 2°33.1 3.8 252 18.7 100600 84
2003-09-22 09:37 51°39.79 2°33.31 3.8 256 18.7 100590 84
2003-09-22 09:38 51°40 2°33.51 5.5 236 18.7 100590 84
2003-09-22 09:39 51°40.2 2°33.72 3.7 220 18.7 100590 84
2003-09-22 09:40 51°40.41 2°33.93 1.7 264 18.7 100590 84
2003-09-22 09:41 51°40.61 2°34.15 3.9 233 18.8 100590 84
2003-09-22 09:42 51°40.81 2°34.36 2.6 237 18.8 100590 84
2003-09-22 09:43 51°41.03 2°34.59 3.6 222 18.8 100580 84
2003-09-22 09:44 51°41.22 2°34.83 2.9 224 18.8 100590 84
2003-09-22 09:45 51°41.42 2°35.08 4.2 219 18.8 100590 84
2003-09-22 09:46 51°41.62 2°35.32 5.1 216 18.8 100580 83
2003-09-22 09:47 51°41.82 2°35.57 2.6 206 18.8 100580 83
2003-09-22 09:48 51°42.01 2°35.83 3.2 196 18.8 100580 83
2003-09-22 09:49 51°42.19 2°36.07 3.6 199 18.8 100580 83
2003-09-22 09:50 51°42.34 2°36.37 5.1 139 18.9 100580 83
2003-09-22 09:51 51°42.44 2°36.75 6 124 18.9 100580 83
2003-09-22 09:52 51°42.49 2°37.13 6.9 113 18.9 100570 83
2003-09-22 09:53 51°42.47 2°37.5 9.9 81 18.9 100560 83
2003-09-22 09:54 51°42.37 2°37.83 10.9 79 18.9 100550 83
2003-09-22 09:55 51°42.24 2°38.14 11 80 18.8 100530 83
2003-09-22 09:56 51°42.12 2°38.44 12.8 73 18.8 100530 84
2003-09-22 09:57 51°42 2°38.75 11.6 75 18.7 100530 84
2003-09-22 09:58 51°41.89 2°39.07 12.1 79 18.7 100540 84
2003-09-22 09:59 51°41.77 2°39.39 9.8 67 18.8 100540 84
2003-09-22 10:00 51°41.66 2°39.71 12.6 81 18.7 100530 84
2003-09-22 10:01 51°41.55 2°40.02 10.9 80 18.8 100520 84
2003-09-22 10:02 51°41.44 2°40.35 10.6 76 18.8 100530 84
2003-09-22 10:03 51°41.33 2°40.66 12.3 71 18.8 100540 85
2003-09-22 10:04 51°41.22 2°40.99 13.3 78 18.8 100530 85
2003-09-22 10:05 51°41.11 2°41.31 11.1 75 18.8 100520 85
2003-09-22 10:06 51°40.99 2°41.63 12 76 18.8 100530 85
2003-09-22 10:07 51°40.86 2°41.92 14.4 70 18.8 100530 84
2003-09-22 10:08 51°40.72 2°42.21 13.9 66 18.8 100520 84
2003-09-22 10:09 51°40.59 2°42.5 12.8 70 18.9 100510 84
2003-09-22 10:10 51°40.46 2°42.79 13.3 62 18.9 100520 84
2003-09-22 10:11 51°40.32 2°43.08 11.1 70 18.9 100510 84
2003-09-22 10:12 51°40.19 2°43.37 13.1 76 18.9 100510 84
2003-09-22 10:13 51°40.05 2°43.66 14.6 66 18.9 100520 84
2003-09-22 10:14 51°39.92 2°43.95 13.3 72 18.9 100520 84
2003-09-22 10:15 51°39.79 2°44.24 12.9 69 18.9 100520 84
2003-09-22 10:16 51°39.66 2°44.53 14.4 66 18.9 100510 83
2003-09-22 10:17 51°39.52 2°44.8 15.2 52 18.9 100510 83
2003-09-22 10:18 51°39.33 2°44.95 15.7 46 19 100510 83
2003-09-22 10:19 51°39.13 2°45.06 17.3 38 19 100500 83
2003-09-22 10:20 51°38.93 2°45.11 18.4 30 19 100500 83
2003-09-22 10:21 51°38.74 2°45.02 18.7 14 19.1 100530 83
2003-09-22 10:22 51°38.56 2°44.87 17.8 15 19.1 100520 83
2003-09-22 10:23 51°38.39 2°44.72 17 15 19.2 100530 82
2003-09-22 10:24 51°38.21 2°44.58 19.3 16 19.2 100520 82
2003-09-22 10:25 51°38.05 2°44.4 17.7 7 19.2 100510 81
2003-09-22 10:26 51°37.95 2°44.13 18.4 343 19.2 100540 80
2003-09-22 10:27 51°38.02 2°43.83 16.7 318 19.3 100520 80
2003-09-22 10:28 51°38.15 2°43.53 16.9 43 19.3 100520 80
2003-09-22 10:29 51°38.28 2°43.24 16.7 40 19.3 100510 79
2003-09-22 10:30 51°38.4 2°42.96 17.4 315 19.3 100490 79
2003-09-22 10:31 51°38.53 2°42.67 19.2 312 19.4 100510 79
2003-09-22 10:32 51°38.66 2°42.38 18.5 315 19.3 100510 78
2003-09-22 10:33 51°38.78 2°42.1 15 318 19.4 100510 78
2003-09-22 10:34 51°38.91 2°41.82 17.3 318 19.4 100490 78
2003-09-22 10:35 51°39.04 2°41.54 16.5 41 19.4 100490 78
2003-09-22 10:36 51°39.17 2°41.27 17.2 42 19.4 100500 77
2003-09-22 10:37 51°39.3 2°40.99 18.3 312 19.4 100480 77
2003-09-22 10:38 51°39.43 2°40.71 18.1 310 19.4 100460 76
2003-09-22 10:39 51°39.5 2°40.4 20.1 345 19.4 100480 76
2003-09-22 10:40 51°39.39 2°40.16 20.9 19 19.5 100510 76
2003-09-22 10:41 51°39.21 2°40.05 21.8 29 19.4 100490 76
2003-09-22 10:42 51°39.03 2°39.96 21.2 24 19.4 100470 76
2003-09-22 10:43 51°38.85 2°39.87 19.4 25 19.3 100450 75
2003-09-22 10:44 51°38.67 2°39.77 19.4 22 19.4 100470 76
2003-09-22 10:45 51°38.48 2°39.68 20.4 28 19.3 100470 76
2003-09-22 10:46 51°38.3 2°39.59 19.9 22 19.3 100480 76
2003-09-22 10:47 51°38.12 2°39.49 18.7 29 19.3 100480 77
2003-09-22 10:48 51°37.93 2°39.39 20.8 21 19.3 100490 77
2003-09-22 10:49 51°37.75 2°39.31 19.5 22 19.3 100490 77
2003-09-22 10:50 51°37.56 2°39.22 21.7 21 19.4 100480 76
2003-09-22 10:51 51°37.37 2°39.14 22.4 21 19.4 100470 75
2003-09-22 10:52 51°37.18 2°39.06 20.5 22 19.4 100480 74
2003-09-22 10:53 51°37 2°38.97 21.8 24 19.4 100480 74
2003-09-22 10:54 51°36.81 2°38.88 21.9 21 19.4 100470 74
2003-09-22 10:55 51°36.62 2°38.8 18.9 20 19.4 100470 74
2003-09-22 10:56 51°36.43 2°38.71 23.3 20 19.4 100470 74
2003-09-22 10:57 51°36.24 2°38.63 17.9 26 19.4 100480 73
2003-09-22 10:58 51°36.05 2°38.6 21.5 32 19.4 100440 73
2003-09-22 10:59 51°35.85 2°38.62 19 35 19.4 100470 74
2003-09-22 11:00 51°35.65 2°38.67 20.8 38 19.3 100440 73
2003-09-22 11:01 51°35.46 2°38.73 17.2 39 19.3 100450 73
2003-09-22 11:02 51°35.26 2°38.81 20 45 19.3 100440 73
2003-09-22 11:03 51°35.07 2°38.92 18.8 51 19.3 100440 73
2003-09-22 11:04 51°34.88 2°39.04 18.9 49 19.3 100450 72
2003-09-22 11:05 51°34.7 2°39.21 16.2 51 19.4 100440 71
2003-09-22 11:06 51°34.52 2°39.38 19.3 56 19.4 100450 71
2003-09-22 11:07 51°34.33 2°39.54 18.9 50 19.4 100440 72
2003-09-22 11:08 51°34.15 2°39.7 16.1 54 19.4 100460 72
2003-09-22 11:09 51°33.96 2°39.87 19.5 54 19.4 100450 71
2003-09-22 11:10 51°33.77 2°40.03 20.2 57 19.4 100440 70
2003-09-22 11:11 51°33.58 2°40.18 20.2 54 19.5 100420 69
2003-09-22 11:12 51°33.4 2°40.34 18.8 51 19.5 100420 68
2003-09-22 11:13 51°33.22 2°40.5 18.5 48 19.6 100450 69
2003-09-22 11:14 51°33.03 2°40.66 20.1 55 19.6 100430 69
2003-09-22 11:15 51°32.85 2°40.82 17.8 45 19.6 100420 70
2003-09-22 11:16 51°32.66 2°40.97 17.8 53 19.6 100430 70
2003-09-22 11:17 51°32.48 2°41.13 19 46 19.6 100450 70
2003-09-22 11:18 51°32.29 2°41.23 18.3 31 19.6 100450 70
2003-09-22 11:19 51°32.12 2°41.11 19.6 3 19.6 100470 70
2003-09-22 11:20 51°31.99 2°40.88 21.1 7 19.7 100460 70
2003-09-22 11:21 51°31.87 2°40.65 21.9 4 19.6 100450 72
2003-09-22 11:22 51°31.75 2°40.41 19.4 359 19.4 100450 72
2003-09-22 11:23 51°31.62 2°40.18 20.2 8 19.4 100440 72
2003-09-22 11:24 51°31.47 2°39.98 22.1 6 19.5 100450 71
2003-09-22 11:25 51°31.32 2°39.79 21.4 11 19.6 100420 71
2003-09-22 11:26 51°31.16 2°39.59 19.8 5 19.6 100440 71
2003-09-22 11:27 51°31.01 2°39.39 21.2 9 19.6 100420 71
2003-09-22 11:28 51°30.85 2°39.2 20.5 10 19.7 100450 71
2003-09-22 11:29 51°30.68 2°39.03 20.7 12 19.7 100410 71
2003-09-22 11:30 51°30.52 2°38.87 22 16 19.6 100420 71
2003-09-22 11:31 51°30.35 2°38.7 21.9 13 19.7 100430 72
2003-09-22 11:32 51°30.18 2°38.54 19.3 9 19.6 100430 72
2003-09-22 11:33 51°30.02 2°38.38 21.5 15 19.6 100400 72
2003-09-22 11:34 51°29.84 2°38.22 21.5 16 19.6 100400 71
2003-09-22 11:35 51°29.66 2°38.13 22 27 19.3 100360 74
2003-09-22 11:36 51°29.46 2°38.11 20.9 29 19.1 100390 74
2003-09-22 11:37 51°29.27 2°38.14 21.1 56 19.2 100420 74
2003-09-22 11:38 51°29.11 2°38.36 16.9 79 19.3 100410 74
2003-09-22 11:39 51°28.95 2°38.61 19.9 61 19.4 100420 74
2003-09-22 11:40 51°28.8 2°38.84 19.3 60 19.4 100410 73
2003-09-22 11:41 51°28.63 2°39.07 17.7 61 19.4 100410 75
2003-09-22 11:42 51°28.47 2°39.3 18 60 19 100420 79
2003-09-22 11:43 51°28.31 2°39.53 15.4 64 18.8 100410 81
2003-09-22 11:44 51°28.15 2°39.77 21 63 18.7 100420 82
2003-09-22 11:45 51°27.97 2°39.93 20.6 58 18.8 100410 81
2003-09-22 11:46 51°27.78 2°40.09 16.6 55 18.9 100390 78
2003-09-22 11:47 51°27.6 2°40.25 19.5 53 19.1 100410 77
2003-09-22 11:48 51°27.41 2°40.41 19.2 57 19.2 100390 75
2003-09-22 11:49 51°27.22 2°40.58 20 59 19.3 100390 75
2003-09-22 11:50 51°27.04 2°40.74 16.1 52 19.3 100400 74
2003-09-22 11:51 51°26.85 2°40.91 19.2 55 19.4 100400 73
2003-09-22 11:52 51°26.67 2°41.07 18.9 56 19.5 100420 74
2003-09-22 11:53 51°26.48 2°41.23 20.2 60 19.5 100400 74
2003-09-22 11:54 51°26.29 2°41.39 18.6 56 19.6 100410 74
2003-09-22 11:55 51°26.1 2°41.54 16.9 63 19.6 100410 74
2003-09-22 11:56 51°25.91 2°41.7 16.6 55 19.6 100420 74
2003-09-22 11:57 51°25.72 2°41.86 16.5 56 19.6 100410 74
2003-09-22 11:58 51°25.53 2°42.01 16.7 53 19.6 100410 73
2003-09-22 11:59 51°25.34 2°42.16 17.7 59 19.6 100430 73
2003-09-22 12:00 51°25.15 2°42.32 17.5 57 19.6 100420 73
2003-09-22 12:01 51°24.96 2°42.47 19.1 59 19.6 100420 73
2003-09-22 12:02 51°24.77 2°42.63 18 57 19.7 100420 73
2003-09-22 12:03 51°24.58 2°42.78 17.1 59 19.7 100420 72
2003-09-22 12:04 51°24.39 2°42.94 15.6 58 19.7 100420 72
2003-09-22 12:05 51°24.2 2°43.09 15.9 60 19.8 100440 73
2003-09-22 12:06 51°24 2°43.24 16.6 58 19.7 100430 73
2003-09-22 12:07 51°23.81 2°43.4 16.5 65 19.7 100430 73
2003-09-22 12:08 51°23.62 2°43.56 17.5 62 19.8 100420 72
2003-09-22 12:09 51°23.42 2°43.71 15.1 52 19.8 100430 72
2003-09-22 12:10 51°23.23 2°43.87 16.2 63 19.8 100420 72
2003-09-22 12:11 51°23.03 2°44.02 15.1 59 19.8 100420 73
2003-09-22 12:12 51°22.84 2°44.17 17 59 19.8 100420 73
2003-09-22 12:13 51°22.64 2°44.33 15.9 57 19.8 100410 72
2003-09-22 12:14 51°22.44 2°44.48 16.4 54 19.9 100420 72
2003-09-22 12:15 51°22.24 2°44.63 15.8 63 19.9 100440 73
2003-09-22 12:16 51°22.05 2°44.78 16.2 62 19.9 100430 73
2003-09-22 12:17 51°21.85 2°44.93 15.8 61 19.9 100430 73
2003-09-22 12:18 51°21.66 2°45.08 13.3 50 19.9 100440 73
2003-09-22 12:19 51°21.46 2°45.24 15.9 53 19.9 100430 73
2003-09-22 12:20 51°21.27 2°45.39 15.2 58 19.9 100440 73
2003-09-22 12:21 51°21.07 2°45.54 14 58 19.9 100440 73
2003-09-22 12:22 51°20.88 2°45.69 15.6 60 19.9 100440 74
2003-09-22 12:23 51°20.68 2°45.84 14.3 57 19.9 100440 73
2003-09-22 12:24 51°20.49 2°45.99 14.7 58 20 100450 73
2003-09-22 12:25 51°20.31 2°46.17 14.3 75 20 100450 73
2003-09-22 12:26 51°20.14 2°46.42 9 73 20 100450 73
2003-09-22 12:27 51°19.99 2°46.69 10.7 83 20.1 100460 73
2003-09-22 12:28 51°19.85 2°46.97 10.8 79 20.1 100460 73
2003-09-22 12:29 51°19.7 2°47.24 10.2 68 20.1 100460 74
2003-09-22 12:30 51°19.56 2°47.53 11.2 81 20.1 100460 73
2003-09-22 12:31 51°19.43 2°47.81 10.1 71 20.1 100450 72
2003-09-22 12:32 51°19.29 2°48.1 13.5 80 20.2 100460 72
2003-09-22 12:33 51°19.15 2°48.38 9.1 75 20.3 100470 71
2003-09-22 12:34 51°19.01 2°48.66 14.1 90 20.3 100460 69
2003-09-22 12:35 51°18.87 2°48.94 14.5 87 20.4 100450 69
2003-09-22 12:36 51°18.74 2°49.23 12.3 93 20.5 100470 69
2003-09-22 12:37 51°18.62 2°49.53 11.3 83 20.5 100470 68
2003-09-22 12:38 51°18.51 2°49.84 11.5 92 20.6 100470 68
2003-09-22 12:39 51°18.39 2°50.14 9.3 92 20.6 100480 68
2003-09-22 12:40 51°18.27 2°50.45 10.6 89 20.6 100470 68
2003-09-22 12:41 51°18.15 2°50.74 10.7 79 20.6 100470 68
2003-09-22 12:42 51°18.01 2°51.01 9.6 82 20.6 100460 67
2003-09-22 12:43 51°17.88 2°51.3 13 95 20.6 100460 66
2003-09-22 12:44 51°17.74 2°51.58 12.1 93 20.7 100460 66
2003-09-22 12:45 51°17.6 2°51.86 14.8 87 20.7 100460 66
2003-09-22 12:46 51°17.46 2°52.13 14.2 83 20.7 100440 66
2003-09-22 12:47 51°17.29 2°52.34 11.4 77 20.8 100440 66
2003-09-22 12:48 51°17.1 2°52.52 15.2 61 20.8 100420 65
2003-09-22 12:49 51°16.91 2°52.7 11.1 72 20.8 100420 65
2003-09-22 12:50 51°16.72 2°52.88 13.1 66 20.8 100420 64
2003-09-22 12:51 51°16.53 2°53.05 12.2 74 20.8 100430 64
2003-09-22 12:52 51°16.34 2°53.21 14.4 68 20.9 100420 65
2003-09-22 12:53 51°16.14 2°53.37 12.9 76 20.8 100430 65
2003-09-22 12:54 51°15.95 2°53.54 13.4 71 20.8 100430 66
2003-09-22 12:55 51°15.76 2°53.71 12.9 72 20.8 100430 66
2003-09-22 12:56 51°15.56 2°53.87 12.3 71 20.8 100430 66
2003-09-22 12:57 51°15.37 2°54.04 12.9 70 20.7 100420 65
2003-09-22 12:58 51°15.18 2°54.2 11.6 70 20.8 100430 65
2003-09-22 12:59 51°15 2°54.35 12 77 20.8 100430 65
2003-09-22 13:00 51°14.82 2°54.51 12.1 79 20.8 100420 64
2003-09-22 13:01 51°14.65 2°54.7 10.6 76 20.9 100430 64
2003-09-22 13:02 51°14.48 2°54.89 12.7 95 20.9 100440 65
2003-09-22 13:03 51°14.34 2°55.12 10 114 20.9 100450 64
2003-09-22 13:04 51°14.24 2°55.3 10.6 109 21 100450 63
2003-09-22 13:05 51°14.14 2°55.4 8.8 92 21.1 100440 62
2003-09-22 13:06 51°14.05 2°55.47 4.2 83 21.3 100450 60
2003-09-22 13:07 51°13.95 2°55.54 6.8 59 21.7 100440 56
2003-09-22 13:08 51°13.86 2°55.61 8.9 31 22.3 100440 51
2003-09-22 13:09 51°13.79 2°55.67 8 55 22.9 100440 48
2003-09-22 13:10 51°13.73 2°55.74 4.2 101 23.1 100450 46
2003-09-22 13:11 51°13.69 2°55.84 5.4 130 23.3 100440 46
2003-09-22 13:12 51°13.65 2°55.94 4.7 115 23.4 100440 46
2003-09-22 13:13 51°13.62 2°56.03 3.6 67 23.5 100440 46
2003-09-22 13:14 51°13.61 2°56.08 6.6 145 23.6 100440 45
2003-09-22 13:15 51°13.6 2°56.11 7.3 98 23.7 100430 45
2003-09-22 13:16 51°13.6 2°56.11 4.8 92 23.7 100430 46
2003-09-22 13:17 51°13.6 2°56.11 7.7 120 23.8 100430 45